<?xml version="1.0" encoding="UTF-8"?>
<gpx creator="Wikiloc - https://www.wikiloc.com" version="1.1" xmlns="http://www.topografix.com/GPX/1/1" xmlns:xsi="http://www.w3.org/2001/XMLSchema-instance" xsi:schemaLocation="http://www.topografix.com/GPX/1/1 http://www.topografix.com/GPX/1/1/gpx.xsd">
  <metadata>
    <name>Wikiloc - Monte Azalegi</name>
    <author>
      <name>Águeda</name>
      <link href="https://www.wikiloc.com/wikiloc/user.do?id=129065">
        <text>Águeda on Wikiloc</text>
      </link>
    </author>
    <link href="https://www.wikiloc.com/hiking-trails/monte-azalegi-135652289">
      <text>Monte Azalegi on Wikiloc</text>
    </link>
    <time>2023-05-24T09:43:47Z</time>
  </metadata>
  <wpt lat="43.002163" lon="-1.205108">
    <ele>849.9</ele>
    <time>2023-05-24T09:43:47Z</time>
    <name>Zona de acogida de Arrazola</name>
    <cmt></cmt>
    <desc></desc>
  </wpt>
  <wpt lat="43.013974" lon="-1.190160">
    <ele>956.8</ele>
    <time>2023-05-24T09:43:47Z</time>
    <name>Haya de los Tres Brazos</name>
    <cmt></cmt>
    <desc></desc>
  </wpt>
  <wpt lat="43.010321" lon="-1.192093">
    <ele>924.6</ele>
    <time>2023-05-24T09:43:47Z</time>
    <name>A. Abrevadero de Orionzilla</name>
    <cmt></cmt>
    <desc></desc>
  </wpt>
  <wpt lat="43.003991" lon="-1.183501">
    <ele>1088.2</ele>
    <time>2023-05-24T09:43:47Z</time>
    <name>B. Collado de Azalegi</name>
    <cmt></cmt>
    <desc></desc>
  </wpt>
  <wpt lat="43.005800" lon="-1.189580">
    <ele>1160.7</ele>
    <time>2023-05-24T09:43:47Z</time>
    <name>C. Monte Azalegi</name>
    <cmt></cmt>
    <desc></desc>
  </wpt>
  <wpt lat="43.003681" lon="-1.196811">
    <ele>1051.7</ele>
    <time>2023-05-24T09:43:47Z</time>
    <name>D. Ermita de San Esteban</name>
    <cmt></cmt>
    <desc></desc>
  </wpt>
  <trk>
    <name>Monte Azalegi</name>
    <cmt></cmt>
    <desc></desc>
    <trkseg>
      <trkpt lat="43.002188" lon="-1.205085">
        <ele>850.011</ele>
        <time>2023-05-24T09:44:15Z</time>
      </trkpt>
      <trkpt lat="43.002016" lon="-1.204796">
        <ele>847.821</ele>
        <time>2023-05-24T09:44:55Z</time>
      </trkpt>
      <trkpt lat="43.002113" lon="-1.204532">
        <ele>846.803</ele>
        <time>2023-05-24T09:45:35Z</time>
      </trkpt>
      <trkpt lat="43.002252" lon="-1.204267">
        <ele>843.409</ele>
        <time>2023-05-24T09:46:15Z</time>
      </trkpt>
      <trkpt lat="43.002498" lon="-1.204179">
        <ele>842.312</ele>
        <time>2023-05-24T09:46:55Z</time>
      </trkpt>
      <trkpt lat="43.003097" lon="-1.203872">
        <ele>845.674</ele>
        <time>2023-05-24T09:47:35Z</time>
      </trkpt>
      <trkpt lat="43.003446" lon="-1.203788">
        <ele>847.486</ele>
        <time>2023-05-24T09:48:15Z</time>
      </trkpt>
      <trkpt lat="43.003716" lon="-1.203919">
        <ele>848.897</ele>
        <time>2023-05-24T09:48:55Z</time>
      </trkpt>
      <trkpt lat="43.003863" lon="-1.204056">
        <ele>851.786</ele>
        <time>2023-05-24T09:49:35Z</time>
      </trkpt>
      <trkpt lat="43.004056" lon="-1.204059">
        <ele>851.053</ele>
        <time>2023-05-24T09:50:15Z</time>
      </trkpt>
      <trkpt lat="43.004349" lon="-1.204176">
        <ele>850.643</ele>
        <time>2023-05-24T09:50:55Z</time>
      </trkpt>
      <trkpt lat="43.004467" lon="-1.204324">
        <ele>853.429</ele>
        <time>2023-05-24T09:51:35Z</time>
      </trkpt>
      <trkpt lat="43.004567" lon="-1.204380">
        <ele>853.940</ele>
        <time>2023-05-24T09:52:15Z</time>
      </trkpt>
      <trkpt lat="43.004752" lon="-1.204510">
        <ele>854.316</ele>
        <time>2023-05-24T09:52:55Z</time>
      </trkpt>
      <trkpt lat="43.004734" lon="-1.204644">
        <ele>856.576</ele>
        <time>2023-05-24T09:53:35Z</time>
      </trkpt>
      <trkpt lat="43.004925" lon="-1.204725">
        <ele>855.813</ele>
        <time>2023-05-24T09:54:15Z</time>
      </trkpt>
      <trkpt lat="43.005092" lon="-1.204902">
        <ele>857.109</ele>
        <time>2023-05-24T09:54:55Z</time>
      </trkpt>
      <trkpt lat="43.005414" lon="-1.204766">
        <ele>858.652</ele>
        <time>2023-05-24T09:55:35Z</time>
      </trkpt>
      <trkpt lat="43.005608" lon="-1.204694">
        <ele>860.024</ele>
        <time>2023-05-24T09:56:15Z</time>
      </trkpt>
      <trkpt lat="43.005768" lon="-1.204475">
        <ele>863.426</ele>
        <time>2023-05-24T09:56:55Z</time>
      </trkpt>
      <trkpt lat="43.005903" lon="-1.204343">
        <ele>865.217</ele>
        <time>2023-05-24T09:57:35Z</time>
      </trkpt>
      <trkpt lat="43.006018" lon="-1.204009">
        <ele>867.076</ele>
        <time>2023-05-24T09:58:15Z</time>
      </trkpt>
      <trkpt lat="43.006060" lon="-1.203752">
        <ele>868.263</ele>
        <time>2023-05-24T09:58:55Z</time>
      </trkpt>
      <trkpt lat="43.006278" lon="-1.203317">
        <ele>870.663</ele>
        <time>2023-05-24T09:59:35Z</time>
      </trkpt>
      <trkpt lat="43.006244" lon="-1.203092">
        <ele>871.079</ele>
        <time>2023-05-24T10:00:15Z</time>
      </trkpt>
      <trkpt lat="43.006325" lon="-1.202959">
        <ele>870.070</ele>
        <time>2023-05-24T10:00:55Z</time>
      </trkpt>
      <trkpt lat="43.006340" lon="-1.202827">
        <ele>869.112</ele>
        <time>2023-05-24T10:01:35Z</time>
      </trkpt>
      <trkpt lat="43.006419" lon="-1.202664">
        <ele>869.132</ele>
        <time>2023-05-24T10:02:15Z</time>
      </trkpt>
      <trkpt lat="43.006491" lon="-1.202287">
        <ele>872.005</ele>
        <time>2023-05-24T10:02:55Z</time>
      </trkpt>
      <trkpt lat="43.006666" lon="-1.202092">
        <ele>873.409</ele>
        <time>2023-05-24T10:03:35Z</time>
      </trkpt>
      <trkpt lat="43.006757" lon="-1.201813">
        <ele>876.422</ele>
        <time>2023-05-24T10:04:15Z</time>
      </trkpt>
      <trkpt lat="43.006944" lon="-1.201629">
        <ele>877.434</ele>
        <time>2023-05-24T10:04:55Z</time>
      </trkpt>
      <trkpt lat="43.007038" lon="-1.201369">
        <ele>879.536</ele>
        <time>2023-05-24T10:05:35Z</time>
      </trkpt>
      <trkpt lat="43.007042" lon="-1.200883">
        <ele>883.237</ele>
        <time>2023-05-24T10:06:15Z</time>
      </trkpt>
      <trkpt lat="43.007127" lon="-1.200512">
        <ele>884.636</ele>
        <time>2023-05-24T10:06:55Z</time>
      </trkpt>
      <trkpt lat="43.007177" lon="-1.200168">
        <ele>885.673</ele>
        <time>2023-05-24T10:07:35Z</time>
      </trkpt>
      <trkpt lat="43.007557" lon="-1.199816">
        <ele>888.813</ele>
        <time>2023-05-24T10:08:15Z</time>
      </trkpt>
      <trkpt lat="43.007770" lon="-1.199509">
        <ele>891.089</ele>
        <time>2023-05-24T10:08:55Z</time>
      </trkpt>
      <trkpt lat="43.007937" lon="-1.199034">
        <ele>895.560</ele>
        <time>2023-05-24T10:09:35Z</time>
      </trkpt>
      <trkpt lat="43.008126" lon="-1.198723">
        <ele>900.489</ele>
        <time>2023-05-24T10:10:15Z</time>
      </trkpt>
      <trkpt lat="43.008343" lon="-1.198476">
        <ele>904.506</ele>
        <time>2023-05-24T10:10:55Z</time>
      </trkpt>
      <trkpt lat="43.008384" lon="-1.198214">
        <ele>907.026</ele>
        <time>2023-05-24T10:11:35Z</time>
      </trkpt>
      <trkpt lat="43.008428" lon="-1.197785">
        <ele>909.909</ele>
        <time>2023-05-24T10:12:15Z</time>
      </trkpt>
      <trkpt lat="43.008599" lon="-1.197556">
        <ele>911.389</ele>
        <time>2023-05-24T10:12:55Z</time>
      </trkpt>
      <trkpt lat="43.008713" lon="-1.197321">
        <ele>912.961</ele>
        <time>2023-05-24T10:13:35Z</time>
      </trkpt>
      <trkpt lat="43.008758" lon="-1.197003">
        <ele>916.143</ele>
        <time>2023-05-24T10:14:15Z</time>
      </trkpt>
      <trkpt lat="43.008955" lon="-1.196617">
        <ele>916.924</ele>
        <time>2023-05-24T10:14:55Z</time>
      </trkpt>
      <trkpt lat="43.009198" lon="-1.195856">
        <ele>917.123</ele>
        <time>2023-05-24T10:15:35Z</time>
      </trkpt>
      <trkpt lat="43.009545" lon="-1.194804">
        <ele>914.520</ele>
        <time>2023-05-24T10:16:15Z</time>
      </trkpt>
      <trkpt lat="43.009668" lon="-1.194469">
        <ele>914.920</ele>
        <time>2023-05-24T10:16:55Z</time>
      </trkpt>
      <trkpt lat="43.009740" lon="-1.194082">
        <ele>916.286</ele>
        <time>2023-05-24T10:17:35Z</time>
      </trkpt>
      <trkpt lat="43.009869" lon="-1.193861">
        <ele>916.617</ele>
        <time>2023-05-24T10:18:15Z</time>
      </trkpt>
      <trkpt lat="43.009789" lon="-1.193577">
        <ele>917.996</ele>
        <time>2023-05-24T10:18:55Z</time>
      </trkpt>
      <trkpt lat="43.009778" lon="-1.193343">
        <ele>918.631</ele>
        <time>2023-05-24T10:19:35Z</time>
      </trkpt>
      <trkpt lat="43.009817" lon="-1.193206">
        <ele>919.224</ele>
        <time>2023-05-24T10:20:15Z</time>
      </trkpt>
      <trkpt lat="43.009885" lon="-1.193063">
        <ele>919.009</ele>
        <time>2023-05-24T10:20:55Z</time>
      </trkpt>
      <trkpt lat="43.009978" lon="-1.192897">
        <ele>919.280</ele>
        <time>2023-05-24T10:21:35Z</time>
      </trkpt>
      <trkpt lat="43.010056" lon="-1.192602">
        <ele>922.362</ele>
        <time>2023-05-24T10:22:15Z</time>
      </trkpt>
      <trkpt lat="43.010205" lon="-1.192504">
        <ele>921.384</ele>
        <time>2023-05-24T10:22:55Z</time>
      </trkpt>
      <trkpt lat="43.010427" lon="-1.192111">
        <ele>922.755</ele>
        <time>2023-05-24T10:23:35Z</time>
      </trkpt>
      <trkpt lat="43.010356" lon="-1.192036">
        <ele>924.994</ele>
        <time>2023-05-24T10:24:15Z</time>
      </trkpt>
      <trkpt lat="43.010297" lon="-1.191876">
        <ele>928.821</ele>
        <time>2023-05-24T10:24:55Z</time>
      </trkpt>
      <trkpt lat="43.010247" lon="-1.191664">
        <ele>933.411</ele>
        <time>2023-05-24T10:25:35Z</time>
      </trkpt>
      <trkpt lat="43.010127" lon="-1.191481">
        <ele>938.367</ele>
        <time>2023-05-24T10:26:15Z</time>
      </trkpt>
      <trkpt lat="43.010087" lon="-1.191364">
        <ele>941.188</ele>
        <time>2023-05-24T10:26:55Z</time>
      </trkpt>
      <trkpt lat="43.010136" lon="-1.191209">
        <ele>942.616</ele>
        <time>2023-05-24T10:27:35Z</time>
      </trkpt>
      <trkpt lat="43.010093" lon="-1.191018">
        <ele>945.776</ele>
        <time>2023-05-24T10:28:15Z</time>
      </trkpt>
      <trkpt lat="43.010035" lon="-1.190881">
        <ele>947.913</ele>
        <time>2023-05-24T10:28:55Z</time>
      </trkpt>
      <trkpt lat="43.009989" lon="-1.190782">
        <ele>949.009</ele>
        <time>2023-05-24T10:29:35Z</time>
      </trkpt>
      <trkpt lat="43.009933" lon="-1.190834">
        <ele>950.062</ele>
        <time>2023-05-24T10:30:15Z</time>
      </trkpt>
      <trkpt lat="43.009919" lon="-1.190751">
        <ele>950.084</ele>
        <time>2023-05-24T10:30:55Z</time>
      </trkpt>
      <trkpt lat="43.009936" lon="-1.190620">
        <ele>949.396</ele>
        <time>2023-05-24T10:31:35Z</time>
      </trkpt>
      <trkpt lat="43.009850" lon="-1.190492">
        <ele>950.377</ele>
        <time>2023-05-24T10:32:15Z</time>
      </trkpt>
      <trkpt lat="43.009785" lon="-1.190351">
        <ele>951.236</ele>
        <time>2023-05-24T10:32:55Z</time>
      </trkpt>
      <trkpt lat="43.009771" lon="-1.190260">
        <ele>951.553</ele>
        <time>2023-05-24T10:33:35Z</time>
      </trkpt>
      <trkpt lat="43.009681" lon="-1.190119">
        <ele>954.853</ele>
        <time>2023-05-24T10:34:15Z</time>
      </trkpt>
      <trkpt lat="43.009661" lon="-1.190034">
        <ele>955.729</ele>
        <time>2023-05-24T10:34:55Z</time>
      </trkpt>
      <trkpt lat="43.009572" lon="-1.189910">
        <ele>959.390</ele>
        <time>2023-05-24T10:35:35Z</time>
      </trkpt>
      <trkpt lat="43.009558" lon="-1.189583">
        <ele>963.084</ele>
        <time>2023-05-24T10:36:15Z</time>
      </trkpt>
      <trkpt lat="43.009509" lon="-1.189347">
        <ele>966.107</ele>
        <time>2023-05-24T10:36:55Z</time>
      </trkpt>
      <trkpt lat="43.009522" lon="-1.189233">
        <ele>965.817</ele>
        <time>2023-05-24T10:37:35Z</time>
      </trkpt>
      <trkpt lat="43.009515" lon="-1.189011">
        <ele>967.109</ele>
        <time>2023-05-24T10:38:15Z</time>
      </trkpt>
      <trkpt lat="43.009508" lon="-1.188716">
        <ele>968.769</ele>
        <time>2023-05-24T10:38:55Z</time>
      </trkpt>
      <trkpt lat="43.009396" lon="-1.188478">
        <ele>975.241</ele>
        <time>2023-05-24T10:39:35Z</time>
      </trkpt>
      <trkpt lat="43.009288" lon="-1.188336">
        <ele>981.623</ele>
        <time>2023-05-24T10:40:15Z</time>
      </trkpt>
      <trkpt lat="43.009206" lon="-1.188096">
        <ele>986.494</ele>
        <time>2023-05-24T10:40:55Z</time>
      </trkpt>
      <trkpt lat="43.009184" lon="-1.187905">
        <ele>989.773</ele>
        <time>2023-05-24T10:41:35Z</time>
      </trkpt>
      <trkpt lat="43.009157" lon="-1.187814">
        <ele>991.830</ele>
        <time>2023-05-24T10:42:15Z</time>
      </trkpt>
      <trkpt lat="43.008990" lon="-1.187567">
        <ele>997.980</ele>
        <time>2023-05-24T10:42:55Z</time>
      </trkpt>
      <trkpt lat="43.008737" lon="-1.187054">
        <ele>1006.986</ele>
        <time>2023-05-24T10:43:35Z</time>
      </trkpt>
      <trkpt lat="43.008498" lon="-1.186663">
        <ele>1015.567</ele>
        <time>2023-05-24T10:44:15Z</time>
      </trkpt>
      <trkpt lat="43.008378" lon="-1.186385">
        <ele>1018.445</ele>
        <time>2023-05-24T10:44:55Z</time>
      </trkpt>
      <trkpt lat="43.008168" lon="-1.185918">
        <ele>1026.147</ele>
        <time>2023-05-24T10:45:35Z</time>
      </trkpt>
      <trkpt lat="43.008044" lon="-1.185657">
        <ele>1031.211</ele>
        <time>2023-05-24T10:46:15Z</time>
      </trkpt>
      <trkpt lat="43.007916" lon="-1.185464">
        <ele>1038.209</ele>
        <time>2023-05-24T10:46:55Z</time>
      </trkpt>
      <trkpt lat="43.007857" lon="-1.185334">
        <ele>1041.765</ele>
        <time>2023-05-24T10:47:35Z</time>
      </trkpt>
      <trkpt lat="43.007825" lon="-1.185068">
        <ele>1044.917</ele>
        <time>2023-05-24T10:48:15Z</time>
      </trkpt>
      <trkpt lat="43.007784" lon="-1.184982">
        <ele>1046.289</ele>
        <time>2023-05-24T10:48:55Z</time>
      </trkpt>
      <trkpt lat="43.007659" lon="-1.184878">
        <ele>1049.810</ele>
        <time>2023-05-24T10:49:35Z</time>
      </trkpt>
      <trkpt lat="43.007551" lon="-1.184809">
        <ele>1051.769</ele>
        <time>2023-05-24T10:50:15Z</time>
      </trkpt>
      <trkpt lat="43.007404" lon="-1.184712">
        <ele>1053.716</ele>
        <time>2023-05-24T10:50:55Z</time>
      </trkpt>
      <trkpt lat="43.007311" lon="-1.184676">
        <ele>1055.356</ele>
        <time>2023-05-24T10:51:35Z</time>
      </trkpt>
      <trkpt lat="43.007197" lon="-1.184668">
        <ele>1057.272</ele>
        <time>2023-05-24T10:52:15Z</time>
      </trkpt>
      <trkpt lat="43.007098" lon="-1.184617">
        <ele>1058.433</ele>
        <time>2023-05-24T10:52:55Z</time>
      </trkpt>
      <trkpt lat="43.006999" lon="-1.184560">
        <ele>1059.681</ele>
        <time>2023-05-24T10:53:35Z</time>
      </trkpt>
      <trkpt lat="43.006924" lon="-1.184519">
        <ele>1060.561</ele>
        <time>2023-05-24T10:54:15Z</time>
      </trkpt>
      <trkpt lat="43.006737" lon="-1.184507">
        <ele>1062.617</ele>
        <time>2023-05-24T10:54:55Z</time>
      </trkpt>
      <trkpt lat="43.006655" lon="-1.184562">
        <ele>1064.009</ele>
        <time>2023-05-24T10:55:35Z</time>
      </trkpt>
      <trkpt lat="43.006545" lon="-1.184630">
        <ele>1066.449</ele>
        <time>2023-05-24T10:56:15Z</time>
      </trkpt>
      <trkpt lat="43.006571" lon="-1.184809">
        <ele>1067.311</ele>
        <time>2023-05-24T10:56:55Z</time>
      </trkpt>
      <trkpt lat="43.006539" lon="-1.184859">
        <ele>1068.363</ele>
        <time>2023-05-24T10:57:35Z</time>
      </trkpt>
      <trkpt lat="43.006455" lon="-1.184838">
        <ele>1069.634</ele>
        <time>2023-05-24T10:58:15Z</time>
      </trkpt>
      <trkpt lat="43.006299" lon="-1.184713">
        <ele>1071.893</ele>
        <time>2023-05-24T10:58:55Z</time>
      </trkpt>
      <trkpt lat="43.006091" lon="-1.184493">
        <ele>1073.140</ele>
        <time>2023-05-24T10:59:35Z</time>
      </trkpt>
      <trkpt lat="43.005890" lon="-1.184312">
        <ele>1074.370</ele>
        <time>2023-05-24T11:00:15Z</time>
      </trkpt>
      <trkpt lat="43.005516" lon="-1.183934">
        <ele>1077.456</ele>
        <time>2023-05-24T11:00:55Z</time>
      </trkpt>
      <trkpt lat="43.005254" lon="-1.183692">
        <ele>1082.297</ele>
        <time>2023-05-24T11:01:35Z</time>
      </trkpt>
      <trkpt lat="43.005046" lon="-1.183537">
        <ele>1085.349</ele>
        <time>2023-05-24T11:02:15Z</time>
      </trkpt>
      <trkpt lat="43.004950" lon="-1.183471">
        <ele>1086.602</ele>
        <time>2023-05-24T11:02:55Z</time>
      </trkpt>
      <trkpt lat="43.004830" lon="-1.183411">
        <ele>1088.122</ele>
        <time>2023-05-24T11:03:35Z</time>
      </trkpt>
      <trkpt lat="43.004649" lon="-1.183405">
        <ele>1091.209</ele>
        <time>2023-05-24T11:04:15Z</time>
      </trkpt>
      <trkpt lat="43.004467" lon="-1.183371">
        <ele>1093.115</ele>
        <time>2023-05-24T11:04:55Z</time>
      </trkpt>
      <trkpt lat="43.004317" lon="-1.183388">
        <ele>1093.667</ele>
        <time>2023-05-24T11:05:35Z</time>
      </trkpt>
      <trkpt lat="43.004280" lon="-1.183412">
        <ele>1093.619</ele>
        <time>2023-05-24T11:06:15Z</time>
      </trkpt>
      <trkpt lat="43.004429" lon="-1.183847">
        <ele>1098.320</ele>
        <time>2023-05-24T11:06:55Z</time>
      </trkpt>
      <trkpt lat="43.004586" lon="-1.184252">
        <ele>1101.859</ele>
        <time>2023-05-24T11:07:35Z</time>
      </trkpt>
      <trkpt lat="43.004625" lon="-1.184514">
        <ele>1103.476</ele>
        <time>2023-05-24T11:08:15Z</time>
      </trkpt>
      <trkpt lat="43.004720" lon="-1.184946">
        <ele>1106.866</ele>
        <time>2023-05-24T11:08:55Z</time>
      </trkpt>
      <trkpt lat="43.004794" lon="-1.185372">
        <ele>1108.362</ele>
        <time>2023-05-24T11:09:35Z</time>
      </trkpt>
      <trkpt lat="43.004822" lon="-1.185665">
        <ele>1109.863</ele>
        <time>2023-05-24T11:10:15Z</time>
      </trkpt>
      <trkpt lat="43.004846" lon="-1.186117">
        <ele>1113.048</ele>
        <time>2023-05-24T11:10:55Z</time>
      </trkpt>
      <trkpt lat="43.004917" lon="-1.186328">
        <ele>1114.361</ele>
        <time>2023-05-24T11:11:35Z</time>
      </trkpt>
      <trkpt lat="43.004959" lon="-1.186533">
        <ele>1115.817</ele>
        <time>2023-05-24T11:12:15Z</time>
      </trkpt>
      <trkpt lat="43.005072" lon="-1.186803">
        <ele>1117.709</ele>
        <time>2023-05-24T11:12:55Z</time>
      </trkpt>
      <trkpt lat="43.005242" lon="-1.187363">
        <ele>1121.895</ele>
        <time>2023-05-24T11:13:35Z</time>
      </trkpt>
      <trkpt lat="43.005488" lon="-1.187923">
        <ele>1128.657</ele>
        <time>2023-05-24T11:14:15Z</time>
      </trkpt>
      <trkpt lat="43.005684" lon="-1.188422">
        <ele>1139.679</ele>
        <time>2023-05-24T11:14:55Z</time>
      </trkpt>
      <trkpt lat="43.005885" lon="-1.188863">
        <ele>1151.290</ele>
        <time>2023-05-24T11:15:35Z</time>
      </trkpt>
      <trkpt lat="43.005926" lon="-1.189061">
        <ele>1154.649</ele>
        <time>2023-05-24T11:16:15Z</time>
      </trkpt>
      <trkpt lat="43.005858" lon="-1.189228">
        <ele>1158.346</ele>
        <time>2023-05-24T11:16:55Z</time>
      </trkpt>
      <trkpt lat="43.005815" lon="-1.189387">
        <ele>1159.746</ele>
        <time>2023-05-24T11:17:35Z</time>
      </trkpt>
      <trkpt lat="43.005746" lon="-1.189563">
        <ele>1158.592</ele>
        <time>2023-05-24T11:18:15Z</time>
      </trkpt>
      <trkpt lat="43.005775" lon="-1.189813">
        <ele>1160.343</ele>
        <time>2023-05-24T11:18:55Z</time>
      </trkpt>
      <trkpt lat="43.005710" lon="-1.190015">
        <ele>1157.718</ele>
        <time>2023-05-24T11:19:35Z</time>
      </trkpt>
      <trkpt lat="43.005638" lon="-1.190265">
        <ele>1156.098</ele>
        <time>2023-05-24T11:20:15Z</time>
      </trkpt>
      <trkpt lat="43.005554" lon="-1.190455">
        <ele>1155.917</ele>
        <time>2023-05-24T11:20:55Z</time>
      </trkpt>
      <trkpt lat="43.005646" lon="-1.190961">
        <ele>1152.909</ele>
        <time>2023-05-24T11:21:35Z</time>
      </trkpt>
      <trkpt lat="43.005741" lon="-1.191345">
        <ele>1149.472</ele>
        <time>2023-05-24T11:22:15Z</time>
      </trkpt>
      <trkpt lat="43.005806" lon="-1.191809">
        <ele>1145.784</ele>
        <time>2023-05-24T11:22:55Z</time>
      </trkpt>
      <trkpt lat="43.005814" lon="-1.192081">
        <ele>1140.986</ele>
        <time>2023-05-24T11:23:35Z</time>
      </trkpt>
      <trkpt lat="43.005812" lon="-1.192346">
        <ele>1133.447</ele>
        <time>2023-05-24T11:24:15Z</time>
      </trkpt>
      <trkpt lat="43.005727" lon="-1.192574">
        <ele>1124.586</ele>
        <time>2023-05-24T11:24:55Z</time>
      </trkpt>
      <trkpt lat="43.005687" lon="-1.192609">
        <ele>1122.943</ele>
        <time>2023-05-24T11:25:35Z</time>
      </trkpt>
      <trkpt lat="43.005686" lon="-1.192671">
        <ele>1121.363</ele>
        <time>2023-05-24T11:26:15Z</time>
      </trkpt>
      <trkpt lat="43.005613" lon="-1.192702">
        <ele>1119.989</ele>
        <time>2023-05-24T11:26:55Z</time>
      </trkpt>
      <trkpt lat="43.005605" lon="-1.192771">
        <ele>1118.350</ele>
        <time>2023-05-24T11:27:35Z</time>
      </trkpt>
      <trkpt lat="43.005583" lon="-1.192885">
        <ele>1115.327</ele>
        <time>2023-05-24T11:28:15Z</time>
      </trkpt>
      <trkpt lat="43.005523" lon="-1.193002">
        <ele>1112.368</ele>
        <time>2023-05-24T11:28:55Z</time>
      </trkpt>
      <trkpt lat="43.005335" lon="-1.193228">
        <ele>1107.114</ele>
        <time>2023-05-24T11:29:35Z</time>
      </trkpt>
      <trkpt lat="43.005241" lon="-1.193345">
        <ele>1105.309</ele>
        <time>2023-05-24T11:30:15Z</time>
      </trkpt>
      <trkpt lat="43.005222" lon="-1.193484">
        <ele>1103.273</ele>
        <time>2023-05-24T11:30:55Z</time>
      </trkpt>
      <trkpt lat="43.005140" lon="-1.193809">
        <ele>1100.385</ele>
        <time>2023-05-24T11:31:35Z</time>
      </trkpt>
      <trkpt lat="43.005108" lon="-1.194047">
        <ele>1099.697</ele>
        <time>2023-05-24T11:32:15Z</time>
      </trkpt>
      <trkpt lat="43.005122" lon="-1.194149">
        <ele>1099.018</ele>
        <time>2023-05-24T11:32:55Z</time>
      </trkpt>
      <trkpt lat="43.005230" lon="-1.194338">
        <ele>1096.227</ele>
        <time>2023-05-24T11:33:35Z</time>
      </trkpt>
      <trkpt lat="43.005238" lon="-1.194421">
        <ele>1096.024</ele>
        <time>2023-05-24T11:34:15Z</time>
      </trkpt>
      <trkpt lat="43.005190" lon="-1.194703">
        <ele>1093.844</ele>
        <time>2023-05-24T11:34:55Z</time>
      </trkpt>
      <trkpt lat="43.005124" lon="-1.194848">
        <ele>1092.360</ele>
        <time>2023-05-24T11:35:35Z</time>
      </trkpt>
      <trkpt lat="43.004985" lon="-1.195027">
        <ele>1091.441</ele>
        <time>2023-05-24T11:36:15Z</time>
      </trkpt>
      <trkpt lat="43.004796" lon="-1.195182">
        <ele>1088.165</ele>
        <time>2023-05-24T11:36:55Z</time>
      </trkpt>
      <trkpt lat="43.004751" lon="-1.195320">
        <ele>1085.068</ele>
        <time>2023-05-24T11:37:35Z</time>
      </trkpt>
      <trkpt lat="43.004762" lon="-1.195414">
        <ele>1082.814</ele>
        <time>2023-05-24T11:38:15Z</time>
      </trkpt>
      <trkpt lat="43.004687" lon="-1.195597">
        <ele>1078.909</ele>
        <time>2023-05-24T11:38:55Z</time>
      </trkpt>
      <trkpt lat="43.004568" lon="-1.195663">
        <ele>1077.237</ele>
        <time>2023-05-24T11:39:35Z</time>
      </trkpt>
      <trkpt lat="43.004423" lon="-1.195789">
        <ele>1075.489</ele>
        <time>2023-05-24T11:40:15Z</time>
      </trkpt>
      <trkpt lat="43.004269" lon="-1.195940">
        <ele>1073.391</ele>
        <time>2023-05-24T11:40:55Z</time>
      </trkpt>
      <trkpt lat="43.004154" lon="-1.196088">
        <ele>1071.872</ele>
        <time>2023-05-24T11:41:35Z</time>
      </trkpt>
      <trkpt lat="43.004093" lon="-1.196301">
        <ele>1068.241</ele>
        <time>2023-05-24T11:42:15Z</time>
      </trkpt>
      <trkpt lat="43.004057" lon="-1.196457">
        <ele>1065.818</ele>
        <time>2023-05-24T11:42:55Z</time>
      </trkpt>
      <trkpt lat="43.004031" lon="-1.196566">
        <ele>1064.138</ele>
        <time>2023-05-24T11:43:35Z</time>
      </trkpt>
      <trkpt lat="43.004038" lon="-1.196654">
        <ele>1063.384</ele>
        <time>2023-05-24T11:44:15Z</time>
      </trkpt>
      <trkpt lat="43.003860" lon="-1.196778">
        <ele>1059.155</ele>
        <time>2023-05-24T11:44:55Z</time>
      </trkpt>
      <trkpt lat="43.003769" lon="-1.196826">
        <ele>1055.128</ele>
        <time>2023-05-24T11:45:35Z</time>
      </trkpt>
      <trkpt lat="43.003680" lon="-1.196617">
        <ele>1053.089</ele>
        <time>2023-05-24T11:46:15Z</time>
      </trkpt>
      <trkpt lat="43.003500" lon="-1.196084">
        <ele>1045.017</ele>
        <time>2023-05-24T11:46:55Z</time>
      </trkpt>
      <trkpt lat="43.003331" lon="-1.195711">
        <ele>1036.909</ele>
        <time>2023-05-24T11:47:35Z</time>
      </trkpt>
      <trkpt lat="43.003248" lon="-1.195488">
        <ele>1034.293</ele>
        <time>2023-05-24T11:48:15Z</time>
      </trkpt>
      <trkpt lat="43.003134" lon="-1.195359">
        <ele>1031.515</ele>
        <time>2023-05-24T11:48:55Z</time>
      </trkpt>
      <trkpt lat="43.002937" lon="-1.195268">
        <ele>1028.237</ele>
        <time>2023-05-24T11:49:35Z</time>
      </trkpt>
      <trkpt lat="43.002814" lon="-1.195211">
        <ele>1027.838</ele>
        <time>2023-05-24T11:50:15Z</time>
      </trkpt>
      <trkpt lat="43.002667" lon="-1.195248">
        <ele>1023.797</ele>
        <time>2023-05-24T11:50:55Z</time>
      </trkpt>
      <trkpt lat="43.002499" lon="-1.195248">
        <ele>1020.254</ele>
        <time>2023-05-24T11:51:35Z</time>
      </trkpt>
      <trkpt lat="43.002336" lon="-1.195268">
        <ele>1016.534</ele>
        <time>2023-05-24T11:52:15Z</time>
      </trkpt>
      <trkpt lat="43.002149" lon="-1.195302">
        <ele>1011.340</ele>
        <time>2023-05-24T11:52:55Z</time>
      </trkpt>
      <trkpt lat="43.002039" lon="-1.195275">
        <ele>1010.211</ele>
        <time>2023-05-24T11:53:35Z</time>
      </trkpt>
      <trkpt lat="43.001859" lon="-1.195038">
        <ele>1012.559</ele>
        <time>2023-05-24T11:54:15Z</time>
      </trkpt>
      <trkpt lat="43.001648" lon="-1.194835">
        <ele>1006.903</ele>
        <time>2023-05-24T11:54:55Z</time>
      </trkpt>
      <trkpt lat="43.001512" lon="-1.194770">
        <ele>1003.623</ele>
        <time>2023-05-24T11:55:35Z</time>
      </trkpt>
      <trkpt lat="43.001344" lon="-1.194701">
        <ele>998.909</ele>
        <time>2023-05-24T11:56:15Z</time>
      </trkpt>
      <trkpt lat="43.001228" lon="-1.194774">
        <ele>995.426</ele>
        <time>2023-05-24T11:56:55Z</time>
      </trkpt>
      <trkpt lat="43.001052" lon="-1.194835">
        <ele>991.318</ele>
        <time>2023-05-24T11:57:35Z</time>
      </trkpt>
      <trkpt lat="43.000555" lon="-1.194990">
        <ele>986.940</ele>
        <time>2023-05-24T11:58:15Z</time>
      </trkpt>
      <trkpt lat="43.000409" lon="-1.195041">
        <ele>986.721</ele>
        <time>2023-05-24T11:58:55Z</time>
      </trkpt>
      <trkpt lat="43.000121" lon="-1.195152">
        <ele>986.250</ele>
        <time>2023-05-24T11:59:35Z</time>
      </trkpt>
      <trkpt lat="42.999841" lon="-1.195377">
        <ele>986.187</ele>
        <time>2023-05-24T12:00:15Z</time>
      </trkpt>
      <trkpt lat="42.999709" lon="-1.195512">
        <ele>986.267</ele>
        <time>2023-05-24T12:00:55Z</time>
      </trkpt>
      <trkpt lat="42.999474" lon="-1.195776">
        <ele>985.943</ele>
        <time>2023-05-24T12:01:35Z</time>
      </trkpt>
      <trkpt lat="42.999174" lon="-1.196310">
        <ele>987.964</ele>
        <time>2023-05-24T12:02:15Z</time>
      </trkpt>
      <trkpt lat="42.998922" lon="-1.196660">
        <ele>987.768</ele>
        <time>2023-05-24T12:02:55Z</time>
      </trkpt>
      <trkpt lat="42.998754" lon="-1.196865">
        <ele>986.242</ele>
        <time>2023-05-24T12:03:35Z</time>
      </trkpt>
      <trkpt lat="42.998489" lon="-1.196924">
        <ele>986.626</ele>
        <time>2023-05-24T12:04:15Z</time>
      </trkpt>
      <trkpt lat="42.998392" lon="-1.196970">
        <ele>986.609</ele>
        <time>2023-05-24T12:04:55Z</time>
      </trkpt>
      <trkpt lat="42.998153" lon="-1.197233">
        <ele>985.647</ele>
        <time>2023-05-24T12:05:35Z</time>
      </trkpt>
      <trkpt lat="42.997930" lon="-1.197467">
        <ele>984.229</ele>
        <time>2023-05-24T12:06:15Z</time>
      </trkpt>
      <trkpt lat="42.997764" lon="-1.197662">
        <ele>982.861</ele>
        <time>2023-05-24T12:06:55Z</time>
      </trkpt>
      <trkpt lat="42.997645" lon="-1.197745">
        <ele>982.682</ele>
        <time>2023-05-24T12:07:35Z</time>
      </trkpt>
      <trkpt lat="42.997555" lon="-1.197830">
        <ele>982.581</ele>
        <time>2023-05-24T12:08:15Z</time>
      </trkpt>
      <trkpt lat="42.997436" lon="-1.198201">
        <ele>982.488</ele>
        <time>2023-05-24T12:08:55Z</time>
      </trkpt>
      <trkpt lat="42.997364" lon="-1.198443">
        <ele>983.238</ele>
        <time>2023-05-24T12:09:35Z</time>
      </trkpt>
      <trkpt lat="42.997157" lon="-1.198824">
        <ele>986.274</ele>
        <time>2023-05-24T12:10:15Z</time>
      </trkpt>
      <trkpt lat="42.997191" lon="-1.199021">
        <ele>984.555</ele>
        <time>2023-05-24T12:10:55Z</time>
      </trkpt>
      <trkpt lat="42.997296" lon="-1.199170">
        <ele>981.499</ele>
        <time>2023-05-24T12:11:35Z</time>
      </trkpt>
      <trkpt lat="42.997380" lon="-1.199227">
        <ele>979.107</ele>
        <time>2023-05-24T12:12:15Z</time>
      </trkpt>
      <trkpt lat="42.997499" lon="-1.199407">
        <ele>975.327</ele>
        <time>2023-05-24T12:12:55Z</time>
      </trkpt>
      <trkpt lat="42.997929" lon="-1.199649">
        <ele>962.809</ele>
        <time>2023-05-24T12:13:35Z</time>
      </trkpt>
      <trkpt lat="42.997998" lon="-1.199750">
        <ele>960.450</ele>
        <time>2023-05-24T12:14:15Z</time>
      </trkpt>
      <trkpt lat="42.998057" lon="-1.199774">
        <ele>958.652</ele>
        <time>2023-05-24T12:14:55Z</time>
      </trkpt>
      <trkpt lat="42.998143" lon="-1.199916">
        <ele>955.574</ele>
        <time>2023-05-24T12:15:35Z</time>
      </trkpt>
      <trkpt lat="42.998783" lon="-1.200332">
        <ele>938.915</ele>
        <time>2023-05-24T12:16:15Z</time>
      </trkpt>
      <trkpt lat="42.998936" lon="-1.200505">
        <ele>934.944</ele>
        <time>2023-05-24T12:16:55Z</time>
      </trkpt>
      <trkpt lat="42.999121" lon="-1.200668">
        <ele>929.141</ele>
        <time>2023-05-24T12:17:35Z</time>
      </trkpt>
      <trkpt lat="42.999221" lon="-1.200603">
        <ele>927.291</ele>
        <time>2023-05-24T12:18:15Z</time>
      </trkpt>
      <trkpt lat="42.999300" lon="-1.200693">
        <ele>924.927</ele>
        <time>2023-05-24T12:18:55Z</time>
      </trkpt>
      <trkpt lat="42.999413" lon="-1.200803">
        <ele>922.578</ele>
        <time>2023-05-24T12:19:35Z</time>
      </trkpt>
      <trkpt lat="42.999615" lon="-1.200891">
        <ele>919.025</ele>
        <time>2023-05-24T12:20:15Z</time>
      </trkpt>
      <trkpt lat="42.999782" lon="-1.201032">
        <ele>915.826</ele>
        <time>2023-05-24T12:20:55Z</time>
      </trkpt>
      <trkpt lat="42.999942" lon="-1.201087">
        <ele>913.708</ele>
        <time>2023-05-24T12:21:35Z</time>
      </trkpt>
      <trkpt lat="43.000175" lon="-1.201307">
        <ele>908.609</ele>
        <time>2023-05-24T12:22:15Z</time>
      </trkpt>
      <trkpt lat="43.000356" lon="-1.201581">
        <ele>903.123</ele>
        <time>2023-05-24T12:22:55Z</time>
      </trkpt>
      <trkpt lat="43.000555" lon="-1.201751">
        <ele>898.525</ele>
        <time>2023-05-24T12:23:35Z</time>
      </trkpt>
      <trkpt lat="43.000641" lon="-1.201841">
        <ele>894.937</ele>
        <time>2023-05-24T12:24:15Z</time>
      </trkpt>
      <trkpt lat="43.000646" lon="-1.201955">
        <ele>893.198</ele>
        <time>2023-05-24T12:24:55Z</time>
      </trkpt>
      <trkpt lat="43.000817" lon="-1.201958">
        <ele>890.067</ele>
        <time>2023-05-24T12:25:35Z</time>
      </trkpt>
      <trkpt lat="43.000919" lon="-1.201869">
        <ele>887.344</ele>
        <time>2023-05-24T12:26:15Z</time>
      </trkpt>
      <trkpt lat="43.001083" lon="-1.201881">
        <ele>881.744</ele>
        <time>2023-05-24T12:26:55Z</time>
      </trkpt>
      <trkpt lat="43.001382" lon="-1.201910">
        <ele>869.160</ele>
        <time>2023-05-24T12:27:35Z</time>
      </trkpt>
      <trkpt lat="43.001544" lon="-1.201830">
        <ele>861.121</ele>
        <time>2023-05-24T12:28:15Z</time>
      </trkpt>
      <trkpt lat="43.001622" lon="-1.201799">
        <ele>857.567</ele>
        <time>2023-05-24T12:28:55Z</time>
      </trkpt>
      <trkpt lat="43.001791" lon="-1.201844">
        <ele>854.981</ele>
        <time>2023-05-24T12:29:35Z</time>
      </trkpt>
      <trkpt lat="43.001873" lon="-1.201992">
        <ele>853.319</ele>
        <time>2023-05-24T12:30:15Z</time>
      </trkpt>
      <trkpt lat="43.001847" lon="-1.202096">
        <ele>852.809</ele>
        <time>2023-05-24T12:30:55Z</time>
      </trkpt>
      <trkpt lat="43.001907" lon="-1.202333">
        <ele>850.287</ele>
        <time>2023-05-24T12:31:35Z</time>
      </trkpt>
      <trkpt lat="43.001891" lon="-1.202557">
        <ele>849.469</ele>
        <time>2023-05-24T12:32:15Z</time>
      </trkpt>
      <trkpt lat="43.001771" lon="-1.202726">
        <ele>848.171</ele>
        <time>2023-05-24T12:32:55Z</time>
      </trkpt>
      <trkpt lat="43.001908" lon="-1.203271">
        <ele>842.752</ele>
        <time>2023-05-24T12:33:35Z</time>
      </trkpt>
      <trkpt lat="43.002045" lon="-1.203555">
        <ele>841.151</ele>
        <time>2023-05-24T12:34:15Z</time>
      </trkpt>
      <trkpt lat="43.002126" lon="-1.203849">
        <ele>839.978</ele>
        <time>2023-05-24T12:34:55Z</time>
      </trkpt>
      <trkpt lat="43.001960" lon="-1.203999">
        <ele>840.628</ele>
        <time>2023-05-24T12:35:35Z</time>
      </trkpt>
      <trkpt lat="43.001884" lon="-1.204065">
        <ele>841.114</ele>
        <time>2023-05-24T12:36:15Z</time>
      </trkpt>
      <trkpt lat="43.001880" lon="-1.204475">
        <ele>844.585</ele>
        <time>2023-05-24T12:36:55Z</time>
      </trkpt>
      <trkpt lat="43.002080" lon="-1.204984">
        <ele>848.932</ele>
        <time>2023-05-24T12:37:35Z</time>
      </trkpt>
    </trkseg>
  </trk></gpx>